sensor_id;sensor_type;location;lat;lon;timestamp;pressure;altitude;pressure_sealevel;temperature;humidity
37170;BME280;23062;13.952;100.608;2023-10-09T00:00:10;1011.99;;;30.35;78.01
37170;BME280;23062;13.952;100.608;2023-10-09T00:05:12;1012.07;;;30.37;78.65
37170;BME280;23062;13.952;100.608;2023-10-09T00:09:57;1012.21;;;30.38;79.21
37170;BME280;23062;13.952;100.608;2023-10-09T00:14:40;1012.23;;;30.38;79.70
37170;BME280;23062;13.952;100.608;2023-10-09T00:19:23;1012.29;;;30.40;79.94
37170;BME280;23062;13.952;100.608;2023-10-09T00:24:13;1012.36;;;30.39;80.08
37170;BME280;23062;13.952;100.608;2023-10-09T00:28:59;1012.39;;;30.38;79.81
37170;BME280;23062;13.952;100.608;2023-10-09T00:33:41;1012.44;;;30.35;79.25
37170;BME280;23062;13.952;100.608;2023-10-09T00:38:23;1012.54;;;30.38;79.60
37170;BME280;23062;13.952;100.608;2023-10-09T00:43:08;1012.59;;;30.41;79.57
37170;BME280;23062;13.952;100.608;2023-10-09T00:47:53;1012.66;;;30.33;76.82
37170;BME280;23062;13.952;100.608;2023-10-09T00:52:47;1012.73;;;30.33;76.55
37170;BME280;23062;13.952;100.608;2023-10-09T00:57:34;1012.76;;;30.36;76.42
37170;BME280;23062;13.952;100.608;2023-10-09T01:02:19;1012.81;;;30.38;76.01
37170;BME280;23062;13.952;100.608;2023-10-09T01:07:02;1012.86;;;30.39;75.51
37170;BME280;23062;13.952;100.608;2023-10-09T01:11:43;1012.88;;;30.40;75.47
37170;BME280;23062;13.952;100.608;2023-10-09T01:16:31;1012.88;;;30.43;75.35
37170;BME280;23062;13.952;100.608;2023-10-09T01:21:18;1013.00;;;30.38;75.16
37170;BME280;23062;13.952;100.608;2023-10-09T01:26:03;1013.06;;;30.34;76.07
37170;BME280;23062;13.952;100.608;2023-10-09T01:30:48;1013.07;;;30.36;76.88
37170;BME280;23062;13.952;100.608;2023-10-09T01:35:32;1013.08;;;30.37;77.12
37170;BME280;23062;13.952;100.608;2023-10-09T01:40:16;1013.10;;;30.37;77.16
37170;BME280;23062;13.952;100.608;2023-10-09T01:45:13;1013.17;;;30.41;78.74
37170;BME280;23062;13.952;100.608;2023-10-09T01:50:07;1013.20;;;30.32;77.77
37170;BME280;23062;13.952;100.608;2023-10-09T01:55:05;1013.21;;;30.34;77.69
37170;BME280;23062;13.952;100.608;2023-10-09T01:59:50;1013.26;;;30.35;77.27
37170;BME280;23062;13.952;100.608;2023-10-09T02:04:37;1013.24;;;30.39;77.65
37170;BME280;23062;13.952;100.608;2023-10-09T02:09:21;1013.26;;;30.36;77.05
37170;BME280;23062;13.952;100.608;2023-10-09T02:13:59;1013.22;;;30.38;77.25
37170;BME280;23062;13.952;100.608;2023-10-09T02:18:39;1013.16;;;30.42;77.33
37170;BME280;23062;13.952;100.608;2023-10-09T02:23:24;1013.21;;;30.45;76.60
37170;BME280;23062;13.952;100.608;2023-10-09T02:28:09;1013.22;;;30.44;75.86
37170;BME280;23062;13.952;100.608;2023-10-09T02:33:01;1013.22;;;30.48;76.23
37170;BME280;23062;13.952;100.608;2023-10-09T02:37:50;1013.21;;;30.50;74.68
37170;BME280;23062;13.952;100.608;2023-10-09T02:42:28;1013.26;;;30.52;73.57
37170;BME280;23062;13.952;100.608;2023-10-09T02:47:05;1013.28;;;30.55;72.41
37170;BME280;23062;13.952;100.608;2023-10-09T02:51:42;1013.29;;;30.55;71.15
37170;BME280;23062;13.952;100.608;2023-10-09T02:56:23;1013.21;;;30.58;70.48
37170;BME280;23062;13.952;100.608;2023-10-09T03:01:00;1013.25;;;30.61;70.46
37170;BME280;23062;13.952;100.608;2023-10-09T03:05:38;1013.18;;;30.60;70.17
37170;BME280;23062;13.952;100.608;2023-10-09T03:10:24;1013.21;;;30.64;70.22
37170;BME280;23062;13.952;100.608;2023-10-09T03:15:10;1013.21;;;30.66;70.40
37170;BME280;23062;13.952;100.608;2023-10-09T03:19:49;1013.17;;;30.72;69.29
37170;BME280;23062;13.952;100.608;2023-10-09T03:24:32;1013.12;;;30.71;68.85
37170;BME280;23062;13.952;100.608;2023-10-09T03:29:09;1013.11;;;30.72;68.16
37170;BME280;23062;13.952;100.608;2023-10-09T03:33:53;1013.04;;;30.74;67.57
37170;BME280;23062;13.952;100.608;2023-10-09T03:38:36;1013.06;;;30.75;68.11
37170;BME280;23062;13.952;100.608;2023-10-09T03:43:17;1012.96;;;30.77;68.32
37170;BME280;23062;13.952;100.608;2023-10-09T03:47:59;1012.90;;;30.80;68.06
37170;BME280;23062;13.952;100.608;2023-10-09T03:52:54;1012.84;;;30.85;68.21
37170;BME280;23062;13.952;100.608;2023-10-09T03:57:38;1012.86;;;30.86;68.46
37170;BME280;23062;13.952;100.608;2023-10-09T04:02:21;1012.77;;;30.88;68.55
37170;BME280;23062;13.952;100.608;2023-10-09T04:07:05;1012.71;;;30.90;67.96
37170;BME280;23062;13.952;100.608;2023-10-09T04:11:41;1012.65;;;30.95;67.56
37170;BME280;23062;13.952;100.608;2023-10-09T04:16:24;1012.54;;;30.96;67.51
37170;BME280;23062;13.952;100.608;2023-10-09T04:21:14;1012.53;;;30.98;67.53
37170;BME280;23062;13.952;100.608;2023-10-09T04:25:59;1012.52;;;31.02;66.84
37170;BME280;23062;13.952;100.608;2023-10-09T04:30:43;1012.49;;;31.01;66.63
37170;BME280;23062;13.952;100.608;2023-10-09T04:35:24;1012.39;;;31.02;66.57
37170;BME280;23062;13.952;100.608;2023-10-09T04:40:08;1012.29;;;31.05;66.02
37170;BME280;23062;13.952;100.608;2023-10-09T04:44:49;1012.33;;;31.07;66.53
37170;BME280;23062;13.952;100.608;2023-10-09T04:49:47;1012.21;;;31.07;66.17
37170;BME280;23062;13.952;100.608;2023-10-09T04:54:33;1012.14;;;31.07;65.89
37170;BME280;23062;13.952;100.608;2023-10-09T04:59:24;1012.03;;;31.08;65.96
37170;BME280;23062;13.952;100.608;2023-10-09T05:04:08;1011.93;;;31.12;65.71
37170;BME280;23062;13.952;100.608;2023-10-09T05:08:45;1011.84;;;31.13;65.77
37170;BME280;23062;13.952;100.608;2023-10-09T05:13:37;1011.68;;;31.12;65.93
37170;BME280;23062;13.952;100.608;2023-10-09T05:18:25;1011.60;;;31.16;65.95
37170;BME280;23062;13.952;100.608;2023-10-09T05:23:09;1011.53;;;31.20;65.12
37170;BME280;23062;13.952;100.608;2023-10-09T05:28:06;1011.40;;;31.21;65.44
37170;BME280;23062;13.952;100.608;2023-10-09T05:32:43;1011.36;;;31.25;65.23
37170;BME280;23062;13.952;100.608;2023-10-09T05:37:23;1011.30;;;31.27;64.85
37170;BME280;23062;13.952;100.608;2023-10-09T05:42:06;1011.23;;;31.27;64.72
37170;BME280;23062;13.952;100.608;2023-10-09T05:46:54;1011.21;;;31.30;64.49
37170;BME280;23062;13.952;100.608;2023-10-09T05:51:54;1011.11;;;31.35;64.24
37170;BME280;23062;13.952;100.608;2023-10-09T05:56:33;1011.06;;;31.34;64.62
37170;BME280;23062;13.952;100.608;2023-10-09T06:01:35;1010.93;;;31.31;64.37
37170;BME280;23062;13.952;100.608;2023-10-09T06:06:38;1010.88;;;31.35;64.03
37170;BME280;23062;13.952;100.608;2023-10-09T06:11:45;1010.73;;;31.38;63.81
37170;BME280;23062;13.952;100.608;2023-10-09T06:16:34;1010.63;;;31.35;63.31
37170;BME280;23062;13.952;100.608;2023-10-09T06:21:28;1010.52;;;31.32;62.64
37170;BME280;23062;13.952;100.608;2023-10-09T06:26:30;1010.50;;;31.39;62.71
37170;BME280;23062;13.952;100.608;2023-10-09T06:31:07;1010.41;;;31.38;62.41
37170;BME280;23062;13.952;100.608;2023-10-09T06:36:03;1010.35;;;31.38;63.04
37170;BME280;23062;13.952;100.608;2023-10-09T06:40:46;1010.25;;;31.36;63.54
37170;BME280;23062;13.952;100.608;2023-10-09T06:45:45;1010.08;;;31.39;63.90
37170;BME280;23062;13.952;100.608;2023-10-09T06:50:30;1010.04;;;31.41;63.51
37170;BME280;23062;13.952;100.608;2023-10-09T06:55:15;1009.91;;;31.43;63.73
37170;BME280;23062;13.952;100.608;2023-10-09T07:00:22;1009.80;;;31.47;63.10
37170;BME280;23062;13.952;100.608;2023-10-09T07:04:55;1009.69;;;31.47;62.40
37170;BME280;23062;13.952;100.608;2023-10-09T07:09:35;1009.60;;;31.48;62.53
37170;BME280;23062;13.952;100.608;2023-10-09T07:14:25;1009.52;;;31.48;62.66
37170;BME280;23062;13.952;100.608;2023-10-09T07:19:07;1009.37;;;31.53;62.57
37170;BME280;23062;13.952;100.608;2023-10-09T07:23:56;1009.36;;;31.50;63.01
37170;BME280;23062;13.952;100.608;2023-10-09T07:28:39;1009.30;;;31.50;61.95
37170;BME280;23062;13.952;100.608;2023-10-09T07:33:26;1009.14;;;31.51;61.84
37170;BME280;23062;13.952;100.608;2023-10-09T07:38:29;1009.08;;;31.55;60.96
37170;BME280;23062;13.952;100.608;2023-10-09T07:43:14;1009.01;;;31.52;60.94
37170;BME280;23062;13.952;100.608;2023-10-09T07:47:51;1008.95;;;31.54;60.56
37170;BME280;23062;13.952;100.608;2023-10-09T07:52:46;1008.85;;;31.55;60.63
37170;BME280;23062;13.952;100.608;2023-10-09T07:57:30;1008.79;;;31.59;60.46
37170;BME280;23062;13.952;100.608;2023-10-09T08:02:15;1008.73;;;31.58;60.94
37170;BME280;23062;13.952;100.608;2023-10-09T08:06:50;1008.68;;;31.64;61.16
37170;BME280;23062;13.952;100.608;2023-10-09T08:11:32;1008.71;;;31.62;61.17
37170;BME280;23062;13.952;100.608;2023-10-09T08:16:31;1008.76;;;31.62;61.68
37170;BME280;23062;13.952;100.608;2023-10-09T08:21:15;1008.74;;;31.63;61.74
37170;BME280;23062;13.952;100.608;2023-10-09T08:25:57;1008.78;;;31.63;61.52
37170;BME280;23062;13.952;100.608;2023-10-09T08:30:35;1008.77;;;31.63;61.49
37170;BME280;23062;13.952;100.608;2023-10-09T08:35:37;1008.81;;;31.66;61.27
37170;BME280;23062;13.952;100.608;2023-10-09T08:40:32;1008.78;;;31.60;61.32
37170;BME280;23062;13.952;100.608;2023-10-09T08:45:11;1008.82;;;31.60;61.23
37170;BME280;23062;13.952;100.608;2023-10-09T08:49:55;1008.77;;;31.61;61.35
37170;BME280;23062;13.952;100.608;2023-10-09T08:54:30;1008.74;;;31.61;61.56
37170;BME280;23062;13.952;100.608;2023-10-09T08:59:20;1008.65;;;31.60;61.32
37170;BME280;23062;13.952;100.608;2023-10-09T09:04:03;1008.64;;;31.60;61.53
37170;BME280;23062;13.952;100.608;2023-10-09T09:08:45;1008.62;;;31.59;61.98
37170;BME280;23062;13.952;100.608;2023-10-09T09:13:21;1008.69;;;31.64;61.93
37170;BME280;23062;13.952;100.608;2023-10-09T09:18:06;1008.69;;;31.62;62.30
37170;BME280;23062;13.952;100.608;2023-10-09T09:22:55;1008.65;;;31.65;62.89
37170;BME280;23062;13.952;100.608;2023-10-09T09:27:47;1008.65;;;31.67;62.71
37170;BME280;23062;13.952;100.608;2023-10-09T09:32:38;1008.74;;;31.69;62.80
37170;BME280;23062;13.952;100.608;2023-10-09T09:37:26;1008.80;;;31.70;62.87
37170;BME280;23062;13.952;100.608;2023-10-09T09:42:14;1008.89;;;31.67;61.15
37170;BME280;23062;13.952;100.608;2023-10-09T09:46:58;1008.83;;;31.70;60.71
37170;BME280;23062;13.952;100.608;2023-10-09T09:51:41;1008.83;;;31.67;59.66
37170;BME280;23062;13.952;100.608;2023-10-09T09:56:19;1008.90;;;31.66;59.86
37170;BME280;23062;13.952;100.608;2023-10-09T10:01:07;1008.95;;;31.68;59.99
37170;BME280;23062;13.952;100.608;2023-10-09T10:05:54;1009.01;;;31.67;60.23
37170;BME280;23062;13.952;100.608;2023-10-09T10:10:43;1009.03;;;31.64;60.79
37170;BME280;23062;13.952;100.608;2023-10-09T10:16:00;1009.04;;;31.64;62.48
37170;BME280;23062;13.952;100.608;2023-10-09T10:26:18;1009.14;;;31.66;62.69
37170;BME280;23062;13.952;100.608;2023-10-09T10:30:47;1009.11;;;31.66;63.00
37170;BME280;23062;13.952;100.608;2023-10-09T10:35:27;1009.11;;;31.67;63.54
37170;BME280;23062;13.952;100.608;2023-10-09T10:46:26;1009.22;;;31.67;62.75
37170;BME280;23062;13.952;100.608;2023-10-09T10:51:22;1009.25;;;31.68;63.14
37170;BME280;23062;13.952;100.608;2023-10-09T10:56:08;1009.34;;;31.66;63.28
37170;BME280;23062;13.952;100.608;2023-10-09T11:00:57;1009.45;;;31.66;63.19
37170;BME280;23062;13.952;100.608;2023-10-09T11:05:33;1009.57;;;31.66;62.94
37170;BME280;23062;13.952;100.608;2023-10-09T11:10:12;1009.54;;;31.65;63.18
37170;BME280;23062;13.952;100.608;2023-10-09T11:14:56;1009.52;;;31.64;64.02
37170;BME280;23062;13.952;100.608;2023-10-09T11:19:49;1009.56;;;31.60;64.23
37170;BME280;23062;13.952;100.608;2023-10-09T11:24:31;1009.54;;;31.60;64.60
37170;BME280;23062;13.952;100.608;2023-10-09T11:29:19;1009.48;;;31.58;64.81
37170;BME280;23062;13.952;100.608;2023-10-09T11:34:17;1009.44;;;31.61;64.11
37170;BME280;23062;13.952;100.608;2023-10-09T11:38:52;1009.52;;;31.61;63.90
37170;BME280;23062;13.952;100.608;2023-10-09T11:43:53;1009.56;;;31.60;63.67
37170;BME280;23062;13.952;100.608;2023-10-09T11:48:38;1009.65;;;31.61;64.53
37170;BME280;23062;13.952;100.608;2023-10-09T11:53:27;1009.73;;;31.62;64.62
37170;BME280;23062;13.952;100.608;2023-10-09T11:58:13;1009.80;;;31.61;64.81
37170;BME280;23062;13.952;100.608;2023-10-09T12:02:52;1009.83;;;31.60;64.87
37170;BME280;23062;13.952;100.608;2023-10-09T12:07:32;1009.85;;;31.60;64.45
37170;BME280;23062;13.952;100.608;2023-10-09T12:12:14;1009.91;;;31.56;64.32
37170;BME280;23062;13.952;100.608;2023-10-09T12:17:06;1009.77;;;31.47;64.34
37170;BME280;23062;13.952;100.608;2023-10-09T12:21:44;1010.11;;;31.58;64.15
37170;BME280;23062;13.952;100.608;2023-10-09T12:26:28;1010.12;;;31.55;64.03
37170;BME280;23062;13.952;100.608;2023-10-09T12:31:19;1010.30;;;31.56;64.25
37170;BME280;23062;13.952;100.608;2023-10-09T12:36:11;1010.43;;;31.57;64.27
37170;BME280;23062;13.952;100.608;2023-10-09T12:41:00;1010.61;;;31.60;64.36
37170;BME280;23062;13.952;100.608;2023-10-09T12:45:40;1010.66;;;31.59;64.48
37170;BME280;23062;13.952;100.608;2023-10-09T12:51:29;1010.81;;;31.60;64.55
37170;BME280;23062;13.952;100.608;2023-10-09T12:56:09;1010.87;;;31.58;64.85
37170;BME280;23062;13.952;100.608;2023-10-09T13:00:57;1011.05;;;31.59;65.14
37170;BME280;23062;13.952;100.608;2023-10-09T13:06:09;1011.16;;;31.61;65.31
37170;BME280;23062;13.952;100.608;2023-10-09T13:11:14;1011.23;;;31.62;65.55
37170;BME280;23062;13.952;100.608;2023-10-09T13:16:12;1011.21;;;31.60;65.39
37170;BME280;23062;13.952;100.608;2023-10-09T13:20:57;1011.27;;;31.62;65.59
37170;BME280;23062;13.952;100.608;2023-10-09T13:26:06;1011.37;;;31.64;65.62
37170;BME280;23062;13.952;100.608;2023-10-09T13:31:20;1011.39;;;31.64;65.77
37170;BME280;23062;13.952;100.608;2023-10-09T13:36:07;1011.42;;;31.64;65.89
37170;BME280;23062;13.952;100.608;2023-10-09T13:41:14;1011.48;;;31.67;66.00
37170;BME280;23062;13.952;100.608;2023-10-09T13:46:11;1011.58;;;31.65;66.12
37170;BME280;23062;13.952;100.608;2023-10-09T13:50:57;1011.74;;;31.72;65.99
37170;BME280;23062;13.952;100.608;2023-10-09T13:55:42;1011.92;;;31.72;65.99
37170;BME280;23062;13.952;100.608;2023-10-09T14:00:41;1011.93;;;31.72;66.14
37170;BME280;23062;13.952;100.608;2023-10-09T14:05:49;1011.97;;;31.73;66.26
37170;BME280;23062;13.952;100.608;2023-10-09T14:10:43;1012.00;;;31.73;66.34
37170;BME280;23062;13.952;100.608;2023-10-09T14:15:34;1012.16;;;31.72;66.49
37170;BME280;23062;13.952;100.608;2023-10-09T14:21:02;1012.34;;;31.72;66.58
37170;BME280;23062;13.952;100.608;2023-10-09T14:26:40;1012.68;;;31.72;67.29
37170;BME280;23062;13.952;100.608;2023-10-09T14:31:52;1012.55;;;31.72;67.76
37170;BME280;23062;13.952;100.608;2023-10-09T14:36:44;1012.57;;;31.72;68.53
37170;BME280;23062;13.952;100.608;2023-10-09T14:41:26;1012.55;;;31.70;68.90
37170;BME280;23062;13.952;100.608;2023-10-09T14:46:06;1012.70;;;31.72;69.11
37170;BME280;23062;13.952;100.608;2023-10-09T14:51:31;1012.71;;;31.70;69.52
37170;BME280;23062;13.952;100.608;2023-10-09T14:56:47;1012.51;;;31.69;69.46
37170;BME280;23062;13.952;100.608;2023-10-09T15:01:33;1012.55;;;31.69;69.95
37170;BME280;23062;13.952;100.608;2023-10-09T15:06:18;1012.67;;;31.69;69.95
37170;BME280;23062;13.952;100.608;2023-10-09T15:11:04;1012.63;;;31.68;70.32
37170;BME280;23062;13.952;100.608;2023-10-09T15:16:13;1012.54;;;31.67;70.39
37170;BME280;23062;13.952;100.608;2023-10-09T15:20:54;1012.42;;;31.66;70.51
37170;BME280;23062;13.952;100.608;2023-10-09T15:26:15;1012.38;;;31.66;70.61
37170;BME280;23062;13.952;100.608;2023-10-09T15:31:06;1012.28;;;31.65;70.58
37170;BME280;23062;13.952;100.608;2023-10-09T15:35:49;1012.23;;;31.63;71.09
37170;BME280;23062;13.952;100.608;2023-10-09T15:40:25;1012.20;;;31.63;70.88
37170;BME280;23062;13.952;100.608;2023-10-09T15:45:05;1012.18;;;31.63;70.64
37170;BME280;23062;13.952;100.608;2023-10-09T15:49:50;1012.13;;;31.62;70.92
37170;BME280;23062;13.952;100.608;2023-10-09T15:54:36;1012.21;;;31.62;71.15
37170;BME280;23062;13.952;100.608;2023-10-09T15:59:13;1012.28;;;31.60;71.23
37170;BME280;23062;13.952;100.608;2023-10-09T16:03:59;1012.30;;;31.62;70.92
37170;BME280;23062;13.952;100.608;2023-10-09T16:08:49;1012.11;;;31.59;71.14
37170;BME280;23062;13.952;100.608;2023-10-09T16:13:26;1012.10;;;31.60;71.17
37170;BME280;23062;13.952;100.608;2023-10-09T16:18:04;1012.17;;;31.60;71.10
37170;BME280;23062;13.952;100.608;2023-10-09T16:22:49;1012.22;;;31.59;71.25
37170;BME280;23062;13.952;100.608;2023-10-09T16:27:30;1012.29;;;31.59;71.12
37170;BME280;23062;13.952;100.608;2023-10-09T16:32:13;1012.18;;;31.58;71.35
37170;BME280;23062;13.952;100.608;2023-10-09T16:36:58;1012.03;;;31.57;71.47
37170;BME280;23062;13.952;100.608;2023-10-09T16:41:46;1011.90;;;31.57;71.60
37170;BME280;23062;13.952;100.608;2023-10-09T16:46:31;1011.97;;;31.55;71.58
37170;BME280;23062;13.952;100.608;2023-10-09T16:51:19;1012.10;;;31.55;71.78
37170;BME280;23062;13.952;100.608;2023-10-09T16:56:06;1012.04;;;31.55;71.79
37170;BME280;23062;13.952;100.608;2023-10-09T17:00:50;1011.93;;;31.53;71.91
37170;BME280;23062;13.952;100.608;2023-10-09T17:05:32;1011.84;;;31.53;71.73
37170;BME280;23062;13.952;100.608;2023-10-09T17:10:25;1011.78;;;31.52;71.98
37170;BME280;23062;13.952;100.608;2023-10-09T17:15:16;1011.78;;;31.52;72.27
37170;BME280;23062;13.952;100.608;2023-10-09T17:20:02;1011.73;;;31.51;72.26
37170;BME280;23062;13.952;100.608;2023-10-09T17:24:49;1011.70;;;31.51;72.24
37170;BME280;23062;13.952;100.608;2023-10-09T17:29:35;1011.60;;;31.50;72.43
37170;BME280;23062;13.952;100.608;2023-10-09T17:34:23;1011.59;;;31.49;72.68
37170;BME280;23062;13.952;100.608;2023-10-09T17:39:10;1011.51;;;31.49;72.46
37170;BME280;23062;13.952;100.608;2023-10-09T17:44:03;1011.46;;;31.48;72.41
37170;BME280;23062;13.952;100.608;2023-10-09T17:49:05;1011.37;;;31.48;72.18
37170;BME280;23062;13.952;100.608;2023-10-09T17:54:13;1011.35;;;31.48;72.51
37170;BME280;23062;13.952;100.608;2023-10-09T17:59:12;1011.35;;;31.48;72.37
37170;BME280;23062;13.952;100.608;2023-10-09T18:04:03;1011.31;;;31.46;72.54
37170;BME280;23062;13.952;100.608;2023-10-09T18:08:55;1011.17;;;31.46;72.21
37170;BME280;23062;13.952;100.608;2023-10-09T18:13:45;1011.10;;;31.46;72.48
37170;BME280;23062;13.952;100.608;2023-10-09T18:18:32;1011.07;;;31.45;72.45
37170;BME280;23062;13.952;100.608;2023-10-09T18:23:21;1011.00;;;31.45;72.18
37170;BME280;23062;13.952;100.608;2023-10-09T18:28:07;1010.93;;;31.45;72.27
37170;BME280;23062;13.952;100.608;2023-10-09T18:32:52;1010.84;;;31.42;72.56
37170;BME280;23062;13.952;100.608;2023-10-09T18:37:40;1010.76;;;31.41;72.76
37170;BME280;23062;13.952;100.608;2023-10-09T18:42:26;1010.66;;;31.42;72.54
37170;BME280;23062;13.952;100.608;2023-10-09T18:47:11;1010.51;;;31.39;72.51
37170;BME280;23062;13.952;100.608;2023-10-09T18:51:57;1010.51;;;31.39;72.88
37170;BME280;23062;13.952;100.608;2023-10-09T18:56:51;1010.52;;;31.39;72.79
37170;BME280;23062;13.952;100.608;2023-10-09T19:01:44;1010.49;;;31.38;72.72
37170;BME280;23062;13.952;100.608;2023-10-09T19:06:22;1010.47;;;31.37;72.84
37170;BME280;23062;13.952;100.608;2023-10-09T19:11:12;1010.54;;;31.37;73.10
37170;BME280;23062;13.952;100.608;2023-10-09T19:15:51;1010.47;;;31.36;73.09
37170;BME280;23062;13.952;100.608;2023-10-09T19:20:35;1010.43;;;31.35;73.05
37170;BME280;23062;13.952;100.608;2023-10-09T19:25:21;1010.41;;;31.34;73.04
37170;BME280;23062;13.952;100.608;2023-10-09T19:30:08;1010.37;;;31.32;73.41
37170;BME280;23062;13.952;100.608;2023-10-09T19:39:54;1010.28;;;31.33;73.65
37170;BME280;23062;13.952;100.608;2023-10-09T19:44:41;1010.19;;;31.32;73.78
37170;BME280;23062;13.952;100.608;2023-10-09T19:49:24;1010.05;;;31.32;73.99
37170;BME280;23062;13.952;100.608;2023-10-09T19:54:15;1010.01;;;31.30;74.08
37170;BME280;23062;13.952;100.608;2023-10-09T20:04:19;1010.01;;;31.31;74.12
37170;BME280;23062;13.952;100.608;2023-10-09T20:09:05;1009.96;;;31.30;73.95
37170;BME280;23062;13.952;100.608;2023-10-09T20:13:51;1010.05;;;31.28;73.75
37170;BME280;23062;13.952;100.608;2023-10-09T20:18:28;1010.09;;;31.29;74.00
37170;BME280;23062;13.952;100.608;2023-10-09T20:23:14;1010.05;;;31.28;74.17
37170;BME280;23062;13.952;100.608;2023-10-09T20:27:53;1009.98;;;31.27;
37170;BME280;23062;13.952;100.608;2023-10-09T20:32:39;1010.03;;;31.25;74.46
37170;BME280;23062;13.952;100.608;2023-10-09T20:37:24;1010.10;;;31.26;74.21
37170;BME280;23062;13.952;100.608;2023-10-09T20:42:10;1010.09;;;31.24;74.21
37170;BME280;23062;13.952;100.608;2023-10-09T20:46:53;1010.02;;;31.24;74.43
37170;BME280;23062;13.952;100.608;2023-10-09T20:51:36;1010.00;;;31.25;74.20
37170;BME280;23062;13.952;100.608;2023-10-09T20:56:14;1010.02;;;31.07;75.48
37170;BME280;23062;13.952;100.608;2023-10-09T21:00:53;1009.95;;;30.94;76.24
37170;BME280;23062;13.952;100.608;2023-10-09T21:05:32;1009.94;;;30.88;76.93
37170;BME280;23062;13.952;100.608;2023-10-09T21:10:16;1009.90;;;30.88;76.89
37170;BME280;23062;13.952;100.608;2023-10-09T21:14:54;1009.89;;;30.85;77.10
37170;BME280;23062;13.952;100.608;2023-10-09T21:19:39;1009.88;;;30.77;77.47
37170;BME280;23062;13.952;100.608;2023-10-09T21:24:19;1009.87;;;30.73;77.76
37170;BME280;23062;13.952;100.608;2023-10-09T21:29:05;1009.88;;;30.67;78.02
37170;BME280;23062;13.952;100.608;2023-10-09T21:33:44;1009.99;;;30.68;78.02
37170;BME280;23062;13.952;100.608;2023-10-09T21:38:29;1010.06;;;30.67;77.94
37170;BME280;23062;13.952;100.608;2023-10-09T21:43:15;1010.15;;;30.60;78.27
37170;BME280;23062;13.952;100.608;2023-10-09T21:48:00;1010.19;;;30.62;78.16
37170;BME280;23062;13.952;100.608;2023-10-09T21:52:45;1010.27;;;30.60;77.35
37170;BME280;23062;13.952;100.608;2023-10-09T21:57:29;1010.42;;;30.52;77.47
37170;BME280;23062;13.952;100.608;2023-10-09T22:02:10;1010.54;;;30.48;77.56
37170;BME280;23062;13.952;100.608;2023-10-09T22:06:50;1010.64;;;30.46;77.77
37170;BME280;23062;13.952;100.608;2023-10-09T22:11:36;1010.73;;;30.45;79.57
37170;BME280;23062;13.952;100.608;2023-10-09T22:16:20;1010.83;;;30.47;78.86
37170;BME280;23062;13.952;100.608;2023-10-09T22:21:01;1010.91;;;30.44;78.67
37170;BME280;23062;13.952;100.608;2023-10-09T22:25:50;1010.99;;;30.40;78.63
37170;BME280;23062;13.952;100.608;2023-10-09T22:30:33;1011.09;;;30.40;78.34
37170;BME280;23062;13.952;100.608;2023-10-09T22:35:11;1011.08;;;30.38;78.20
37170;BME280;23062;13.952;100.608;2023-10-09T22:39:50;1011.11;;;30.19;79.20
37170;BME280;23062;13.952;100.608;2023-10-09T22:44:27;1011.17;;;29.99;80.38
37170;BME280;23062;13.952;100.608;2023-10-09T22:49:08;1011.23;;;29.92;81.24
37170;BME280;23062;13.952;100.608;2023-10-09T22:54:01;1011.28;;;30.04;80.68
37170;BME280;23062;13.952;100.608;2023-10-09T22:58:42;1011.32;;;29.98;80.98
37170;BME280;23062;13.952;100.608;2023-10-09T23:03:38;1011.36;;;29.96;81.21
37170;BME280;23062;13.952;100.608;2023-10-09T23:08:16;1011.36;;;29.92;81.40
37170;BME280;23062;13.952;100.608;2023-10-09T23:13:00;1011.43;;;29.88;81.01
37170;BME280;23062;13.952;100.608;2023-10-09T23:17:44;1011.51;;;29.88;80.66
37170;BME280;23062;13.952;100.608;2023-10-09T23:22:31;1011.57;;;29.88;81.56
37170;BME280;23062;13.952;100.608;2023-10-09T23:27:19;1011.67;;;29.84;81.57
37170;BME280;23062;13.952;100.608;2023-10-09T23:32:11;1011.72;;;29.83;81.40
37170;BME280;23062;13.952;100.608;2023-10-09T23:37:06;1011.77;;;29.80;81.44
37170;BME280;23062;13.952;100.608;2023-10-09T23:41:43;1011.83;;;29.77;81.20
37170;BME280;23062;13.952;100.608;2023-10-09T23:46:30;1011.94;;;29.74;81.20
37170;BME280;23062;13.952;100.608;2023-10-09T23:51:07;1011.93;;;29.71;81.19
37170;BME280;23062;13.952;100.608;2023-10-09T23:55:52;1012.00;;;29.73;81.22
